createdAt,value
2018-06-08T00:00:59.776Z,24.03
2018-06-08T00:03:29.147Z,23.93
2018-06-08T00:05:58.382Z,24.60
2018-06-08T00:08:27.559Z,24.67
2018-06-08T00:10:56.684Z,26.20
2018-06-08T00:13:26.339Z,25.50
2018-06-08T00:15:55.563Z,25.37
2018-06-08T00:18:24.746Z,24.53
2018-06-08T00:20:54.120Z,25.07
2018-06-08T00:23:23.158Z,21.70
2018-06-08T00:25:52.386Z,23.13
2018-06-08T00:28:22.031Z,22.47
2018-06-08T00:30:50.955Z,22.00
2018-06-08T00:33:20.182Z,21.90
2018-06-08T00:35:49.655Z,21.63
2018-06-08T00:38:18.849Z,21.50
2018-06-08T00:40:48.478Z,21.63
2018-06-08T00:43:17.563Z,20.07
2018-06-08T00:45:46.509Z,20.87
2018-06-08T00:48:15.512Z,21.07
2018-06-08T00:50:44.740Z,21.50
2018-06-08T00:53:13.875Z,20.03
2018-06-08T00:55:42.899Z,20.27
2018-06-08T00:58:11.812Z,20.17
2018-06-08T01:00:40.846Z,19.90
2018-06-08T01:03:09.766Z,21.40
2018-06-08T01:05:38.769Z,20.67
2018-06-08T01:08:07.839Z,22.77
2018-06-08T01:10:36.870Z,22.57
2018-06-08T01:13:06.295Z,22.13
2018-06-08T01:15:35.222Z,22.40
2018-06-08T01:18:04.228Z,22.63
2018-06-08T01:20:33.215Z,21.67
2018-06-08T01:23:02.052Z,21.83
2018-06-08T01:25:31.088Z,24.03
2018-06-08T01:28:00.099Z,22.07
2018-06-08T01:30:29.234Z,22.80
2018-06-08T01:32:58.347Z,21.53
2018-06-08T01:35:27.900Z,23.17
2018-06-08T01:37:56.931Z,22.20
2018-06-08T01:40:26.006Z,22.70
2018-06-08T01:42:55.158Z,22.07
2018-06-08T01:45:24.167Z,22.60
2018-06-08T01:47:53.262Z,24.23
2018-06-08T01:50:22.695Z,23.13
2018-06-08T01:52:51.612Z,22.63
2018-06-08T01:55:20.621Z,22.47
2018-06-08T01:57:49.987Z,22.67
2018-06-08T02:00:18.931Z,22.17
2018-06-08T02:02:47.910Z,22.47
2018-06-08T02:05:17.041Z,22.33
2018-06-08T02:07:45.998Z,21.33
2018-06-08T02:10:15.278Z,22.57
2018-06-08T02:12:44.963Z,21.70
2018-06-08T02:15:13.803Z,22.17
2018-06-08T02:17:42.837Z,21.57
2018-06-08T02:20:12.204Z,22.00
2018-06-08T02:22:41.443Z,27.20
2018-06-08T02:25:10.784Z,21.13
2018-06-08T02:27:39.862Z,20.87
2018-06-08T02:30:09.237Z,20.87
2018-06-08T02:32:38.335Z,21.27
2018-06-08T02:35:07.554Z,20.03
2018-06-08T02:37:36.774Z,21.17
2018-06-08T02:40:05.944Z,20.97
2018-06-08T02:42:35.182Z,20.27
2018-06-08T02:45:04.442Z,21.07
2018-06-08T02:47:33.510Z,21.50
2018-06-08T02:50:02.714Z,21.10
2018-06-08T02:52:31.542Z,21.10
2018-06-08T02:56:29.891Z,20.67
2018-06-08T02:58:59.206Z,21.27
2018-06-08T03:01:28.479Z,19.03
2018-06-08T03:03:57.615Z,22.17
2018-06-08T03:06:26.650Z,21.97
2018-06-08T03:08:55.712Z,21.83
2018-06-08T03:11:25.014Z,22.47
2018-06-08T03:13:54.058Z,20.67
2018-06-08T03:16:23.357Z,19.47
2018-06-08T03:18:52.997Z,18.13
2018-06-08T03:21:22.078Z,21.17
2018-06-08T03:23:51.181Z,32.63
2018-06-08T03:26:20.674Z,20.33
2018-06-08T03:28:49.885Z,19.20
2018-06-08T03:31:19.240Z,24.50
2018-06-08T03:33:48.922Z,18.90
2018-06-08T03:36:18.195Z,18.87
2018-06-08T03:38:47.353Z,29.27
2018-06-08T03:41:17.007Z,19.47
2018-06-08T03:43:46.436Z,18.40
2018-06-08T03:46:15.819Z,18.23
2018-06-08T03:48:45.042Z,18.33
2018-06-08T03:51:14.281Z,17.87
2018-06-08T03:53:43.331Z,17.70
2018-06-08T03:56:12.774Z,17.50
2018-06-08T03:58:41.897Z,17.83
2018-06-08T04:01:12.039Z,18.27
2018-06-08T04:03:41.311Z,17.33
2018-06-08T04:06:10.191Z,17.23
2018-06-08T04:08:39.158Z,37.40
2018-06-08T04:11:08.312Z,17.47
2018-06-08T04:13:37.388Z,21.90
2018-06-08T04:16:06.841Z,17.10
2018-06-08T04:18:36.692Z,17.27
2018-06-08T04:21:05.808Z,18.97
2018-06-08T04:23:34.628Z,16.55
2018-06-08T04:26:03.725Z,16.52
2018-06-08T04:28:32.730Z,17.23
2018-06-08T04:31:01.769Z,16.82
2018-06-08T04:33:30.936Z,17.65
2018-06-08T04:35:59.926Z,17.05
2018-06-08T04:38:28.848Z,15.93
2018-06-08T04:40:58.421Z,16.73
2018-06-08T04:43:27.556Z,15.08
2018-06-08T04:45:56.695Z,14.40
2018-06-08T04:48:25.747Z,15.35
2018-06-08T04:50:55.048Z,13.13
2018-06-08T04:53:24.093Z,13.38
2018-06-08T04:55:53.873Z,15.10
2018-06-08T04:58:23.015Z,13.03
2018-06-08T05:00:52.985Z,14.03
2018-06-08T05:03:22.398Z,13.25
2018-06-08T05:05:51.594Z,11.90
2018-06-08T05:08:20.625Z,15.03
2018-06-08T05:10:49.807Z,12.18
2018-06-08T05:13:18.869Z,10.70
2018-06-08T05:15:47.946Z,11.55
2018-06-08T05:18:17.023Z,11.45
2018-06-08T05:20:46.025Z,10.95
2018-06-08T05:23:15.022Z,9.75
2018-06-08T05:25:44.296Z,9.35
2018-06-08T05:28:13.441Z,10.25
2018-06-08T05:30:42.508Z,10.45
2018-06-08T05:33:11.898Z,10.85
2018-06-08T05:35:40.885Z,10.25
2018-06-08T05:38:10.026Z,9.70
2018-06-08T05:40:39.229Z,10.23
2018-06-08T05:43:08.167Z,8.83
2018-06-08T05:45:37.096Z,9.45
2018-06-08T05:48:06.162Z,9.23
2018-06-08T05:50:35.151Z,11.80
2018-06-08T05:53:04.114Z,13.98
2018-06-08T05:55:33.175Z,9.70
2018-06-08T05:58:02.103Z,9.00
2018-06-08T06:00:30.981Z,10.32
2018-06-08T06:03:00.222Z,9.08
2018-06-08T06:05:29.211Z,9.35
2018-06-08T06:07:58.055Z,9.90
2018-06-08T06:10:27.488Z,10.05
2018-06-08T06:12:56.487Z,10.03
2018-06-08T06:15:25.351Z,9.45
2018-06-08T06:17:54.260Z,9.05
2018-06-08T06:20:23.280Z,10.40
2018-06-08T06:22:52.174Z,10.15
2018-06-08T06:25:21.639Z,11.57
2018-06-08T06:27:50.635Z,12.23
2018-06-08T06:30:19.606Z,12.25
2018-06-08T06:32:49.113Z,26.95
2018-06-08T06:35:18.036Z,14.45
2018-06-08T06:37:46.887Z,13.93
2018-06-08T06:40:16.128Z,11.93
2018-06-08T06:42:44.957Z,13.88
2018-06-08T06:45:13.784Z,13.15
2018-06-08T06:47:42.679Z,13.75
2018-06-08T06:50:11.516Z,13.30
2018-06-08T06:52:40.312Z,13.45
2018-06-08T06:55:09.510Z,12.63
2018-06-08T06:57:38.315Z,13.93
2018-06-08T07:00:07.141Z,14.25
2018-06-08T07:02:36.406Z,13.78
2018-06-08T07:05:05.307Z,15.53
2018-06-08T07:07:34.128Z,15.43
2018-06-08T07:10:03.469Z,14.28
2018-06-08T07:12:32.544Z,17.55
2018-06-08T07:15:01.477Z,17.10
2018-06-08T07:17:30.745Z,15.32
2018-06-08T07:19:59.581Z,15.48
2018-06-08T07:22:28.476Z,13.78
2018-06-08T07:24:57.777Z,14.73
2018-06-08T07:27:26.617Z,13.70
2018-06-08T07:29:55.614Z,13.80
2018-06-08T07:32:25.076Z,13.68
2018-06-08T07:34:54.100Z,14.30
2018-06-08T07:37:23.118Z,14.07
2018-06-08T07:39:52.626Z,13.68
2018-06-08T07:42:21.628Z,13.13
2018-06-08T07:44:50.638Z,13.28
2018-06-08T07:47:19.553Z,14.25
2018-06-08T07:49:48.544Z,12.40
2018-06-08T07:52:17.481Z,12.78
2018-06-08T07:54:46.517Z,14.70
2018-06-08T07:57:15.381Z,14.15
2018-06-08T07:59:44.231Z,13.75
2018-06-08T08:02:13.632Z,14.43
2018-06-08T08:04:42.537Z,13.38
2018-06-08T08:07:11.499Z,13.83
2018-06-08T08:09:40.870Z,13.00
2018-06-08T08:12:09.890Z,13.08
2018-06-08T08:14:38.746Z,13.60
2018-06-08T08:17:07.833Z,14.20
2018-06-08T08:19:36.739Z,12.90
2018-06-08T08:22:05.753Z,13.60
2018-06-08T08:24:35.208Z,14.30
2018-06-08T08:27:04.172Z,15.32
2018-06-08T08:29:33.351Z,15.65
2018-06-08T08:32:02.514Z,18.85
2018-06-08T08:34:31.504Z,14.83
2018-06-08T08:37:00.357Z,12.60
2018-06-08T08:39:29.263Z,15.53
2018-06-08T08:41:58.176Z,15.15
2018-06-08T08:44:27.120Z,13.38
2018-06-08T08:46:56.133Z,14.18
2018-06-08T08:49:25.113Z,12.90
2018-06-08T08:51:54.212Z,15.08
2018-06-08T08:54:23.232Z,15.60
2018-06-08T08:56:52.219Z,13.88
2018-06-08T08:59:21.149Z,14.63
2018-06-08T09:01:50.048Z,14.70
2018-06-08T09:04:18.961Z,15.55
2018-06-08T09:06:47.888Z,15.20
2018-06-08T09:09:17.434Z,14.93
2018-06-08T09:11:46.283Z,15.00
2018-06-08T09:14:15.250Z,14.13
2018-06-08T09:16:44.508Z,14.15
2018-06-08T09:19:13.379Z,13.22
2018-06-08T09:21:42.300Z,13.32
2018-06-08T09:24:11.264Z,12.95
2018-06-08T09:26:40.232Z,12.60
2018-06-08T09:29:09.140Z,19.52
2018-06-08T09:31:38.471Z,11.90
2018-06-08T09:34:07.616Z,12.23
2018-06-08T09:36:36.619Z,12.95
2018-06-08T09:39:07.780Z,13.28
2018-06-08T09:41:36.980Z,13.38
2018-06-08T09:44:05.953Z,14.03
2018-06-08T09:46:35.283Z,13.50
2018-06-08T09:49:04.245Z,13.58
2018-06-08T09:51:33.207Z,13.93
2018-06-08T09:54:02.123Z,12.75
2018-06-08T09:56:31.089Z,13.98
2018-06-08T09:58:59.933Z,12.80
2018-06-08T10:01:29.436Z,12.65
2018-06-08T10:03:58.280Z,15.53
2018-06-08T10:06:27.237Z,13.15
2018-06-08T10:08:56.511Z,13.93
2018-06-08T10:11:25.460Z,14.15
2018-06-08T10:13:55.270Z,14.15
2018-06-08T10:16:24.604Z,14.87
2018-06-08T10:18:53.551Z,12.90
2018-06-08T10:21:22.606Z,12.68
2018-06-08T10:23:51.822Z,13.22
2018-06-08T10:26:20.801Z,13.03
2018-06-08T10:28:49.652Z,13.45
2018-06-08T10:31:18.936Z,14.15
2018-06-08T10:33:47.867Z,14.25
2018-06-08T10:36:16.731Z,14.30
2018-06-08T10:38:46.132Z,13.90
2018-06-08T10:41:15.189Z,13.78
2018-06-08T10:43:44.170Z,14.78
2018-06-08T10:46:13.523Z,14.90
2018-06-08T10:48:42.448Z,14.40
2018-06-08T10:51:11.375Z,13.83
2018-06-08T10:53:40.786Z,13.48
2018-06-08T10:56:09.738Z,14.07
2018-06-08T10:58:38.651Z,12.43
2018-06-08T11:01:07.862Z,13.50
2018-06-08T11:03:36.825Z,14.50
2018-06-08T11:06:05.734Z,14.83
2018-06-08T11:08:35.102Z,14.73
2018-06-08T11:11:04.030Z,15.80
2018-06-08T11:13:32.872Z,16.17
2018-06-08T11:16:01.748Z,17.50
2018-06-08T11:18:30.561Z,16.55
2018-06-08T11:20:59.383Z,16.40
2018-06-08T11:23:28.657Z,16.85
2018-06-08T11:25:57.528Z,18.07
2018-06-08T11:28:26.404Z,20.05
2018-06-08T11:30:56.568Z,20.30
2018-06-08T11:33:25.571Z,19.75
2018-06-08T11:35:54.528Z,18.10
2018-06-08T11:38:23.852Z,19.77
2018-06-08T11:40:52.858Z,19.95
2018-06-08T11:43:21.813Z,19.52
2018-06-08T11:45:50.832Z,19.65
2018-06-08T11:48:19.744Z,21.52
2018-06-08T11:50:48.585Z,20.37
2018-06-08T11:53:17.633Z,19.23
2018-06-08T12:02:31.426Z,19.02
2018-06-08T12:05:00.322Z,19.80
2018-06-08T12:07:29.219Z,20.62
2018-06-08T12:09:58.235Z,21.25
2018-06-08T12:12:27.132Z,21.57
2018-06-08T12:14:56.066Z,20.60
2018-06-08T12:17:25.285Z,21.00
2018-06-08T12:19:54.298Z,20.70
2018-06-08T12:22:23.261Z,18.98
2018-06-08T12:24:52.405Z,18.35
2018-06-08T12:27:21.438Z,19.32
2018-06-08T12:29:50.335Z,18.75
2018-06-08T12:32:20.085Z,20.12
2018-06-08T12:34:49.053Z,22.02
2018-06-08T12:37:17.928Z,20.45
2018-06-08T12:39:46.920Z,20.12
2018-06-08T12:42:15.756Z,20.08
2018-06-08T12:44:44.686Z,20.68
2018-06-08T12:47:14.007Z,18.67
2018-06-08T12:49:42.896Z,19.32
2018-06-08T12:52:11.801Z,19.20
2018-06-08T12:54:41.064Z,19.42
2018-06-08T12:57:09.967Z,19.32
2018-06-08T12:59:38.856Z,20.15
2018-06-08T13:02:08.354Z,18.85
2018-06-08T13:04:37.248Z,20.65
2018-06-08T13:07:06.309Z,20.72
2018-06-08T13:09:35.289Z,19.80
2018-06-08T13:12:04.171Z,21.70
2018-06-08T13:14:33.092Z,22.77
2018-06-08T13:17:09.548Z,21.93
2018-06-08T13:19:38.600Z,22.10
2018-06-08T13:22:07.689Z,22.80
2018-06-08T13:24:36.922Z,23.70
2018-06-08T13:27:05.879Z,22.58
2018-06-08T13:29:34.945Z,23.45
2018-06-08T13:32:04.849Z,21.48
2018-06-08T13:34:33.803Z,22.30
2018-06-08T13:37:03.201Z,22.22
2018-06-08T13:39:32.326Z,21.80
2018-06-08T13:42:01.255Z,22.75
2018-06-08T13:44:30.301Z,21.82
2018-06-08T13:46:59.618Z,20.70
2018-06-08T13:49:28.507Z,20.85
2018-06-08T13:51:57.438Z,21.80
2018-06-08T13:54:27.135Z,22.02
2018-06-08T13:56:56.347Z,19.73
2018-06-08T13:59:25.303Z,19.17
2018-06-08T14:01:54.331Z,18.17
2018-06-08T14:04:23.343Z,16.97
2018-06-08T14:06:52.532Z,18.60
2018-06-08T14:09:22.271Z,17.67
2018-06-08T14:11:51.253Z,16.23
2018-06-08T14:14:20.303Z,17.32
2018-06-08T14:16:49.735Z,17.48
2018-06-08T14:19:21.571Z,17.37
2018-06-08T14:21:51.189Z,17.20
2018-06-08T14:24:20.156Z,16.15
2018-06-08T14:26:49.152Z,16.95
2018-06-08T14:29:18.210Z,15.70
2018-06-08T14:31:47.254Z,16.45
2018-06-08T14:34:16.345Z,17.17
2018-06-08T14:36:46.153Z,16.00
2018-06-08T14:39:15.081Z,17.62
2018-06-08T14:41:43.955Z,16.52
2018-06-08T14:44:12.895Z,18.07
2018-06-08T14:46:41.711Z,15.93
2018-06-08T14:49:10.624Z,15.30
2018-06-08T14:51:39.561Z,14.80
2018-06-08T14:54:08.362Z,15.20
2018-06-08T14:56:37.316Z,14.73
2018-06-08T14:59:06.355Z,15.88
2018-06-08T15:01:35.216Z,14.73
2018-06-08T15:04:04.149Z,14.58
2018-06-08T15:06:34.248Z,14.85
2018-06-08T15:09:03.221Z,13.98
2018-06-08T15:11:32.136Z,13.55
2018-06-08T15:14:01.140Z,12.73
2018-06-08T15:16:30.054Z,11.90
2018-06-08T15:18:58.965Z,13.13
2018-06-08T15:21:28.413Z,12.55
2018-06-08T15:23:57.236Z,12.73
2018-06-08T15:26:26.067Z,13.13
2018-06-08T15:28:55.268Z,11.68
2018-06-08T15:31:24.124Z,11.85
2018-06-08T15:33:53.131Z,12.10
2018-06-08T15:36:22.554Z,13.05
2018-06-08T15:38:51.537Z,11.43
2018-06-08T15:41:20.394Z,11.93
2018-06-08T15:43:49.367Z,12.80
2018-06-08T15:46:18.323Z,12.70
2018-06-08T15:48:47.257Z,11.83
2018-06-08T15:51:16.439Z,12.18
2018-06-08T15:53:45.332Z,12.45
2018-06-08T15:56:15.204Z,12.53
2018-06-08T15:58:44.501Z,12.37
2018-06-08T16:01:13.437Z,12.53
2018-06-08T16:03:42.415Z,13.25
2018-06-08T16:06:11.681Z,13.08
2018-06-08T16:08:40.591Z,12.35
2018-06-08T16:11:09.568Z,12.65
2018-06-08T16:13:38.854Z,13.18
2018-06-08T16:16:07.713Z,13.00
2018-06-08T16:18:36.698Z,14.00
2018-06-08T16:21:05.881Z,13.93
2018-06-08T16:23:35.031Z,13.95
2018-06-08T16:26:04.057Z,13.58
2018-06-08T16:28:33.650Z,14.18
2018-06-08T16:31:02.641Z,15.45
2018-06-08T16:33:31.533Z,17.15
2018-06-08T16:36:00.968Z,14.20
2018-06-08T16:38:29.822Z,14.83
2018-06-08T16:40:58.702Z,14.50
2018-06-08T16:43:27.766Z,15.23
2018-06-08T16:45:56.688Z,14.30
2018-06-08T16:48:25.651Z,13.72
2018-06-08T16:50:55.163Z,14.05
2018-06-08T16:53:24.184Z,13.90
2018-06-08T16:55:53.143Z,12.68
2018-06-08T16:58:22.104Z,12.95
2018-06-08T17:00:50.994Z,13.18
2018-06-08T17:03:19.918Z,13.62
2018-06-08T17:05:50.517Z,12.30
2018-06-08T17:08:19.433Z,13.35
2018-06-08T17:10:48.367Z,11.57
2018-06-08T17:13:17.600Z,12.95
2018-06-08T17:15:46.464Z,13.22
2018-06-08T17:18:15.399Z,13.18
2018-06-08T17:20:44.473Z,12.58
2018-06-08T17:23:13.342Z,12.00
2018-06-08T17:25:42.106Z,12.45
2018-06-08T17:28:11.195Z,12.88
2018-06-08T17:30:40.137Z,12.65
2018-06-08T17:33:09.100Z,13.03
2018-06-08T17:35:38.073Z,11.18
2018-06-08T17:38:06.898Z,11.10
2018-06-08T17:40:35.829Z,12.15
2018-06-08T17:43:04.855Z,11.50
2018-06-08T17:45:33.791Z,11.30
2018-06-08T17:48:03.006Z,10.90
2018-06-08T17:50:32.048Z,11.35
2018-06-08T17:53:01.135Z,11.15
2018-06-08T17:55:30.312Z,11.38
2018-06-08T17:57:59.227Z,10.80
2018-06-08T18:00:28.137Z,10.32
2018-06-08T18:02:57.116Z,11.28
2018-06-08T18:05:26.505Z,11.20
2018-06-08T18:07:55.345Z,11.18
2018-06-08T18:10:24.239Z,10.88
2018-06-08T18:12:53.455Z,10.60
2018-06-08T18:15:22.372Z,11.03
2018-06-08T18:17:51.321Z,10.88
2018-06-08T18:20:20.434Z,10.85
2018-06-08T18:22:49.354Z,11.15
2018-06-08T18:25:18.227Z,10.43
2018-06-08T18:27:47.493Z,11.68
2018-06-08T18:30:16.271Z,10.20
2018-06-08T18:32:45.218Z,11.03
2018-06-08T18:35:14.555Z,11.12
2018-06-08T18:37:43.522Z,11.97
2018-06-08T18:40:12.436Z,11.95
2018-06-08T18:42:41.400Z,12.05
2018-06-08T18:45:10.216Z,12.28
2018-06-08T18:47:39.803Z,13.32
2018-06-08T18:50:09.271Z,12.63
2018-06-08T18:52:38.203Z,13.05
2018-06-08T18:55:07.279Z,13.18
2018-06-08T18:57:36.388Z,13.03
2018-06-08T19:00:05.447Z,13.80
2018-06-08T19:02:34.208Z,14.30
2018-06-08T19:05:03.145Z,16.23
2018-06-08T19:07:32.205Z,15.53
2018-06-08T19:10:01.175Z,15.30
2018-06-08T19:12:30.549Z,17.02
2018-06-08T19:14:59.392Z,16.70
2018-06-08T19:17:28.413Z,18.00
2018-06-08T19:19:57.361Z,16.23
2018-06-08T19:22:26.212Z,17.02
2018-06-08T19:24:55.160Z,16.02
2018-06-08T19:28:26.619Z,14.70
2018-06-08T19:37:40.863Z,15.50
2018-06-08T19:40:09.783Z,15.23
2018-06-08T19:42:38.782Z,13.98
2018-06-08T19:45:08.175Z,15.35
2018-06-08T19:47:37.030Z,14.43
2018-06-08T19:50:06.090Z,15.83
2018-06-08T19:52:36.173Z,15.43
2018-06-08T19:55:05.174Z,15.78
2018-06-08T19:57:34.126Z,15.85
2018-06-08T20:00:03.072Z,15.68
2018-06-08T20:02:32.240Z,14.73
2018-06-08T20:05:01.299Z,14.95
2018-06-08T20:07:30.317Z,15.15
2018-06-08T20:09:59.560Z,15.38
2018-06-08T20:12:28.703Z,15.32
2018-06-08T20:14:58.218Z,16.45
2018-06-08T20:17:27.131Z,14.63
2018-06-08T20:19:56.283Z,16.10
2018-06-08T20:22:25.963Z,15.90
2018-06-08T20:24:55.117Z,15.72
2018-06-08T20:27:24.307Z,15.78
2018-06-08T20:29:53.344Z,15.13
2018-06-08T20:32:22.480Z,15.05
2018-06-08T20:34:51.545Z,14.98
2018-06-08T20:37:21.087Z,15.08
2018-06-08T20:39:50.074Z,14.80
2018-06-08T20:42:19.193Z,15.65
2018-06-08T20:44:48.645Z,15.68
2018-06-08T20:47:17.650Z,14.98
2018-06-08T20:49:46.797Z,16.05
2018-06-08T20:52:16.328Z,15.72
2018-06-08T20:54:45.386Z,15.32
2018-06-08T20:57:30.195Z,14.68
2018-06-08T20:59:59.454Z,14.45
2018-06-08T21:02:28.753Z,15.10
2018-06-08T21:04:57.822Z,14.78
2018-06-08T21:07:26.861Z,14.75
2018-06-08T21:09:56.123Z,14.90
2018-06-08T21:12:25.209Z,14.03
2018-06-08T21:14:54.268Z,15.32
2018-06-08T21:17:23.310Z,15.18
2018-06-08T21:19:52.655Z,16.23
2018-06-08T21:22:21.890Z,36.48
2018-06-08T21:24:51.043Z,42.27
2018-06-08T21:27:20.218Z,41.05
2018-06-08T21:29:49.242Z,36.33
2018-06-08T21:32:18.395Z,32.85
2018-06-08T21:34:47.987Z,31.25
2018-06-08T21:37:16.985Z,30.25
2018-06-08T21:39:45.962Z,27.80
2018-06-08T21:42:15.088Z,30.02
2018-06-08T21:44:44.221Z,22.70
2018-06-08T21:47:13.336Z,21.40
2018-06-08T21:49:42.842Z,16.95
2018-06-08T21:52:11.932Z,16.95
2018-06-08T21:54:40.818Z,16.15
2018-06-08T21:57:09.836Z,16.30
2018-06-08T21:59:38.962Z,16.67
2018-06-08T22:02:08.016Z,17.57
2018-06-08T22:04:37.667Z,16.55
2018-06-08T22:07:06.953Z,16.77
2018-06-08T22:09:36.140Z,15.03
2018-06-08T22:12:05.700Z,14.18
2018-06-08T22:14:34.724Z,14.20
2018-06-08T22:17:03.800Z,14.38
2018-06-08T22:19:32.874Z,14.18
2018-06-08T22:22:02.155Z,14.55
2018-06-08T22:24:31.268Z,14.00
2018-06-08T22:27:00.666Z,14.98
2018-06-08T22:29:29.645Z,13.97
2018-06-08T22:31:58.576Z,15.08
2018-06-08T22:34:27.581Z,15.43
2018-06-08T22:36:56.774Z,15.50
2018-06-08T22:39:25.913Z,14.43
2018-06-08T22:41:54.860Z,14.03
2018-06-08T22:44:23.984Z,14.78
2018-06-08T22:46:53.030Z,14.90
2018-06-08T22:49:22.484Z,15.07
2018-06-08T22:51:51.393Z,15.10
2018-06-08T22:54:20.343Z,15.27
2018-06-08T22:56:49.536Z,15.07
2018-06-08T22:59:18.424Z,15.93
2018-06-08T23:01:47.427Z,15.87
2018-06-08T23:04:17.043Z,15.57
2018-06-08T23:06:45.946Z,16.90
2018-06-08T23:09:14.980Z,17.80
2018-06-08T23:11:44.331Z,17.80
2018-06-08T23:14:13.253Z,18.87
2018-06-08T23:16:42.157Z,19.67
2018-06-08T23:19:11.604Z,20.43
2018-06-08T23:21:40.448Z,20.53
2018-06-08T23:24:09.400Z,19.37
2018-06-08T23:26:38.390Z,19.23
2018-06-08T23:29:07.475Z,18.63
2018-06-08T23:31:36.633Z,18.80
2018-06-08T23:34:05.647Z,19.63
2018-06-08T23:36:34.679Z,20.30
2018-06-08T23:39:03.717Z,18.83
2018-06-08T23:41:33.042Z,18.50
2018-06-08T23:44:02.058Z,18.63
2018-06-08T23:46:31.055Z,18.97
2018-06-08T23:49:00.531Z,20.17
2018-06-08T23:51:29.560Z,19.40
2018-06-08T23:53:58.550Z,20.57
2018-06-08T23:56:28.200Z,19.13
2018-06-08T23:58:57.125Z,20.07
